Detall de PIREP

Printer-friendly versionPDF version

[2014/03/30 19:14:00]
Flight IATA:CT3104
Pilot Number:012
Company ICAO:CAT
Aircraft Type:B744/E
PAX:400
Departing Airport: LIEA
Destination Airport: LFMP
Alternate Airport:LFBO
Online: VATSIM
Route:GINOX UM732 OLNUL UM989 DIVKO UT21 BOLSA UZ39 SIJAN
Flight Level:F320
No Slew and time accel
No pause
Crash detect
Detect pilot in Cockpit between each 30 and 45 minutes
19:14 Zero fuel Weight: 477083 Lbs, Fuel Weight: 70262 Lbs
19:14 VATSIM:LIEA 301850Z 26004KT 9999 SCT025 14/09 Q1016
19:14 VATSIM:LFMP 301830Z AUTO 11009KT 9999 NSC 13/11 Q1015
19:15 Parking Brakes off
19:19 Take-off
19:19 Take off Weight: 545866 Lbs
19:19 Wind: 000º @ 000 Knots Heading: 204º
19:19 POS N40º 37´ 49´´ E008º 17´ 24´´
19:19 Gear Up: 170 Knots
19:19 Flaps:3 at 170 Knots
19:19 Flaps:2 at 176 Knots
19:19 Flaps:1 at 188 Knots
19:20 Flaps:0 at 208 Knots
19:20 Flaps:1 at 209 Knots
19:23 Flaps:0 at 218 Knots
19:33 TOC
19:33 Fuel Weight: 57743 Lb
19:34 Wind:000º@000 Knots Heading: 278º Ground Speed: 480 Knots Altitude 31991 ft
19:49 Wind:000º@000 Knots Heading: 342º Ground Speed: 481 Knots Altitude 31998 ft
19:58 TOD
19:58 Fuel Weight: 48844 Lb
20:04 Wind:000º@000 Knots Heading: 264º Ground Speed: 380 Knots Altitude 19832 ft
20:12 Flaps:1 at 201 Knots
20:12 Flaps:2 at 201 Knots
20:13 Flaps:3 at 201 Knots
20:13 Flaps:4 at 196 Knots
20:17 Flaps:5 at 183 Knots
20:17 Gear Down: 170 Knots
20:17 Flaps:6 at 154 Knots
20:19 Wind:000º@000 Knots Heading: 330º Ground Speed: 145 Knots Altitude 1236 ft
20:20 TouchDown:Rate -185 ft/min Speed: 133 Knots
20:20 VATSIM:LFMP 302000Z AUTO 12008KT 9999 FEW056 13/11 Q1016
20:20 Land
20:20 Wind:000º@000 Knots
20:20 Heading: 329º
20:20 Flight Duration: 01:01
20:20 Landing Weight: 521236 Lbs
20:20 POS N42º 44´ 44´´ E002º 52´ 07´´
20:24 Parking brakes on
20:24 Block to Block Duration: 01:09
20:24 Final Fuel: 43487 Lbls
20:24 Spent Fuel: 26774 Lbls
20:24 Flight Length: 392 NM
20:24 TOD Land Length: 107 NM

Exportar CSV

Powered by Drupal - Modified by Danger4k